sensor_id;sensor_type;location;lat;lon;timestamp;P1;durP1;ratioP1;P2;durP2;ratioP2
11386;SDS011;5748;53.102;8.456;2024-02-15T00:00:49;3.40;;;3.10;;
11386;SDS011;5748;53.102;8.456;2024-02-15T00:03:19;2.87;;;2.67;;
11386;SDS011;5748;53.102;8.456;2024-02-15T00:05:46;2.90;;;2.70;;
11386;SDS011;5748;53.102;8.456;2024-02-15T00:08:13;2.87;;;2.67;;
11386;SDS011;5748;53.102;8.456;2024-02-15T00:10:41;2.80;;;2.60;;
11386;SDS011;5748;53.102;8.456;2024-02-15T00:13:11;2.73;;;2.53;;
11386;SDS011;5748;53.102;8.456;2024-02-15T00:15:38;3.30;;;3.00;;
11386;SDS011;5748;53.102;8.456;2024-02-15T00:18:05;2.90;;;2.70;;
11386;SDS011;5748;53.102;8.456;2024-02-15T00:20:34;3.33;;;3.03;;
11386;SDS011;5748;53.102;8.456;2024-02-15T00:23:01;3.07;;;2.77;;
11386;SDS011;5748;53.102;8.456;2024-02-15T00:25:29;3.40;;;3.10;;
11386;SDS011;5748;53.102;8.456;2024-02-15T00:27:56;2.90;;;2.70;;
11386;SDS011;5748;53.102;8.456;2024-02-15T00:30:25;2.67;;;2.47;;
11386;SDS011;5748;53.102;8.456;2024-02-15T00:32:53;3.63;;;3.33;;
11386;SDS011;5748;53.102;8.456;2024-02-15T00:35:20;3.43;;;3.13;;
11386;SDS011;5748;53.102;8.456;2024-02-15T00:37:49;3.20;;;2.90;;
11386;SDS011;5748;53.102;8.456;2024-02-15T00:40:17;3.17;;;2.97;;
11386;SDS011;5748;53.102;8.456;2024-02-15T00:42:44;3.10;;;2.90;;
11386;SDS011;5748;53.102;8.456;2024-02-15T00:45:11;2.90;;;2.70;;
11386;SDS011;5748;53.102;8.456;2024-02-15T00:47:39;3.33;;;3.03;;
11386;SDS011;5748;53.102;8.456;2024-02-15T00:50:07;3.40;;;3.10;;
11386;SDS011;5748;53.102;8.456;2024-02-15T00:52:35;3.20;;;2.90;;
11386;SDS011;5748;53.102;8.456;2024-02-15T00:55:03;3.20;;;3.00;;
11386;SDS011;5748;53.102;8.456;2024-02-15T00:57:31;3.63;;;3.33;;
11386;SDS011;5748;53.102;8.456;2024-02-15T00:59:58;3.70;;;3.40;;
11386;SDS011;5748;53.102;8.456;2024-02-15T01:02:27;3.50;;;3.20;;
11386;SDS011;5748;53.102;8.456;2024-02-15T01:04:54;3.70;;;3.40;;
11386;SDS011;5748;53.102;8.456;2024-02-15T01:07:22;3.37;;;3.07;;
11386;SDS011;5748;53.102;8.456;2024-02-15T01:09:51;3.90;;;3.57;;
11386;SDS011;5748;53.102;8.456;2024-02-15T01:12:19;3.40;;;3.10;;
11386;SDS011;5748;53.102;8.456;2024-02-15T01:14:46;3.90;;;3.30;;
11386;SDS011;5748;53.102;8.456;2024-02-15T01:17:13;3.40;;;3.10;;
11386;SDS011;5748;53.102;8.456;2024-02-15T01:19:42;3.73;;;3.43;;
11386;SDS011;5748;53.102;8.456;2024-02-15T01:22:10;3.40;;;3.10;;
11386;SDS011;5748;53.102;8.456;2024-02-15T01:24:37;3.50;;;3.20;;
11386;SDS011;5748;53.102;8.456;2024-02-15T01:27:04;2.87;;;2.67;;
11386;SDS011;5748;53.102;8.456;2024-02-15T01:29:33;3.37;;;3.07;;
11386;SDS011;5748;53.102;8.456;2024-02-15T01:32:01;3.13;;;2.83;;
11386;SDS011;5748;53.102;8.456;2024-02-15T01:34:30;3.33;;;3.03;;
11386;SDS011;5748;53.102;8.456;2024-02-15T01:36:57;2.90;;;2.70;;
11386;SDS011;5748;53.102;8.456;2024-02-15T01:39:24;3.00;;;2.80;;
11386;SDS011;5748;53.102;8.456;2024-02-15T01:41:51;3.07;;;2.87;;
11386;SDS011;5748;53.102;8.456;2024-02-15T01:44:21;2.73;;;2.53;;
11386;SDS011;5748;53.102;8.456;2024-02-15T01:46:51;2.77;;;2.57;;
11386;SDS011;5748;53.102;8.456;2024-02-15T01:49:19;2.70;;;2.50;;
11386;SDS011;5748;53.102;8.456;2024-02-15T01:51:47;2.60;;;2.40;;
11386;SDS011;5748;53.102;8.456;2024-02-15T01:54:15;2.80;;;2.50;;
11386;SDS011;5748;53.102;8.456;2024-02-15T01:56:43;2.90;;;2.70;;
11386;SDS011;5748;53.102;8.456;2024-02-15T01:59:10;2.63;;;2.37;;
11386;SDS011;5748;53.102;8.456;2024-02-15T02:01:41;3.50;;;2.43;;
11386;SDS011;5748;53.102;8.456;2024-02-15T02:04:10;3.00;;;2.80;;
11386;SDS011;5748;53.102;8.456;2024-02-15T02:06:37;3.17;;;2.87;;
11386;SDS011;5748;53.102;8.456;2024-02-15T02:09:04;3.10;;;2.80;;
11386;SDS011;5748;53.102;8.456;2024-02-15T02:11:31;3.07;;;2.77;;
11386;SDS011;5748;53.102;8.456;2024-02-15T02:13:58;3.10;;;2.80;;
11386;SDS011;5748;53.102;8.456;2024-02-15T02:16:26;3.60;;;3.30;;
11386;SDS011;5748;53.102;8.456;2024-02-15T02:18:54;3.20;;;2.90;;
11386;SDS011;5748;53.102;8.456;2024-02-15T02:21:23;3.50;;;3.20;;
11386;SDS011;5748;53.102;8.456;2024-02-15T02:23:52;3.40;;;3.10;;
11386;SDS011;5748;53.102;8.456;2024-02-15T02:26:24;3.30;;;3.00;;
11386;SDS011;5748;53.102;8.456;2024-02-15T02:28:51;3.30;;;3.00;;
11386;SDS011;5748;53.102;8.456;2024-02-15T02:31:19;3.07;;;2.80;;
11386;SDS011;5748;53.102;8.456;2024-02-15T02:33:47;2.93;;;2.70;;
11386;SDS011;5748;53.102;8.456;2024-02-15T02:36:18;3.47;;;3.13;;
11386;SDS011;5748;53.102;8.456;2024-02-15T02:38:45;3.50;;;3.20;;
11386;SDS011;5748;53.102;8.456;2024-02-15T02:41:15;4.10;;;3.80;;
11386;SDS011;5748;53.102;8.456;2024-02-15T02:43:43;3.63;;;3.33;;
11386;SDS011;5748;53.102;8.456;2024-02-15T02:46:10;4.40;;;4.00;;
11386;SDS011;5748;53.102;8.456;2024-02-15T02:48:38;4.07;;;3.67;;
11386;SDS011;5748;53.102;8.456;2024-02-15T02:51:06;3.77;;;3.47;;
11386;SDS011;5748;53.102;8.456;2024-02-15T02:53:33;3.27;;;2.97;;
11386;SDS011;5748;53.102;8.456;2024-02-15T02:56:01;3.50;;;3.20;;
11386;SDS011;5748;53.102;8.456;2024-02-15T02:58:28;4.20;;;3.80;;
11386;SDS011;5748;53.102;8.456;2024-02-15T03:00:57;4.07;;;3.67;;
11386;SDS011;5748;53.102;8.456;2024-02-15T03:03:26;4.43;;;4.03;;
11386;SDS011;5748;53.102;8.456;2024-02-15T03:05:54;4.57;;;4.17;;
11386;SDS011;5748;53.102;8.456;2024-02-15T03:08:21;4.00;;;3.70;;
11386;SDS011;5748;53.102;8.456;2024-02-15T03:10:49;3.60;;;3.30;;
11386;SDS011;5748;53.102;8.456;2024-02-15T03:13:16;3.60;;;3.30;;
11386;SDS011;5748;53.102;8.456;2024-02-15T03:15:45;3.67;;;3.37;;
11386;SDS011;5748;53.102;8.456;2024-02-15T03:18:15;3.50;;;3.20;;
11386;SDS011;5748;53.102;8.456;2024-02-15T03:20:42;3.83;;;3.43;;
11386;SDS011;5748;53.102;8.456;2024-02-15T03:23:10;3.60;;;3.20;;
11386;SDS011;5748;53.102;8.456;2024-02-15T03:25:37;4.33;;;3.93;;
11386;SDS011;5748;53.102;8.456;2024-02-15T03:28:04;4.00;;;3.60;;
11386;SDS011;5748;53.102;8.456;2024-02-15T03:30:32;3.30;;;3.00;;
11386;SDS011;5748;53.102;8.456;2024-02-15T03:33:00;3.60;;;3.30;;
11386;SDS011;5748;53.102;8.456;2024-02-15T03:35:31;3.73;;;3.40;;
11386;SDS011;5748;53.102;8.456;2024-02-15T03:37:58;3.70;;;3.40;;
11386;SDS011;5748;53.102;8.456;2024-02-15T03:40:26;4.17;;;3.77;;
11386;SDS011;5748;53.102;8.456;2024-02-15T03:42:53;4.37;;;3.97;;
11386;SDS011;5748;53.102;8.456;2024-02-15T03:45:21;4.30;;;3.90;;
11386;SDS011;5748;53.102;8.456;2024-02-15T03:47:50;4.27;;;3.87;;
11386;SDS011;5748;53.102;8.456;2024-02-15T03:50:18;4.73;;;4.20;;
11386;SDS011;5748;53.102;8.456;2024-02-15T03:52:48;4.30;;;3.90;;
11386;SDS011;5748;53.102;8.456;2024-02-15T03:55:15;4.17;;;3.80;;
11386;SDS011;5748;53.102;8.456;2024-02-15T03:57:43;4.40;;;4.00;;
11386;SDS011;5748;53.102;8.456;2024-02-15T04:00:11;4.40;;;4.00;;
11386;SDS011;5748;53.102;8.456;2024-02-15T04:02:45;4.40;;;4.00;;
11386;SDS011;5748;53.102;8.456;2024-02-15T04:05:14;4.50;;;4.10;;
11386;SDS011;5748;53.102;8.456;2024-02-15T04:07:43;4.13;;;3.73;;
11386;SDS011;5748;53.102;8.456;2024-02-15T04:10:11;4.30;;;3.90;;
11386;SDS011;5748;53.102;8.456;2024-02-15T04:12:38;4.23;;;3.83;;
11386;SDS011;5748;53.102;8.456;2024-02-15T04:15:07;4.20;;;3.80;;
11386;SDS011;5748;53.102;8.456;2024-02-15T04:17:38;4.17;;;3.83;;
11386;SDS011;5748;53.102;8.456;2024-02-15T04:20:06;4.10;;;3.70;;
11386;SDS011;5748;53.102;8.456;2024-02-15T04:22:36;5.33;;;4.17;;
11386;SDS011;5748;53.102;8.456;2024-02-15T04:25:04;4.33;;;3.93;;
11386;SDS011;5748;53.102;8.456;2024-02-15T04:27:36;4.67;;;4.17;;
11386;SDS011;5748;53.102;8.456;2024-02-15T04:30:03;4.43;;;4.03;;
11386;SDS011;5748;53.102;8.456;2024-02-15T04:32:32;3.90;;;3.60;;
11386;SDS011;5748;53.102;8.456;2024-02-15T04:35:01;4.47;;;4.07;;
11386;SDS011;5748;53.102;8.456;2024-02-15T04:37:28;3.93;;;3.53;;
11386;SDS011;5748;53.102;8.456;2024-02-15T04:39:57;5.00;;;4.30;;
11386;SDS011;5748;53.102;8.456;2024-02-15T04:42:31;4.83;;;4.33;;
11386;SDS011;5748;53.102;8.456;2024-02-15T04:45:00;4.23;;;3.83;;
11386;SDS011;5748;53.102;8.456;2024-02-15T04:47:27;4.07;;;3.70;;
11386;SDS011;5748;53.102;8.456;2024-02-15T04:49:55;4.10;;;3.70;;
11386;SDS011;5748;53.102;8.456;2024-02-15T04:52:22;3.83;;;3.50;;
11386;SDS011;5748;53.102;8.456;2024-02-15T04:54:49;3.93;;;3.53;;
11386;SDS011;5748;53.102;8.456;2024-02-15T04:57:16;4.43;;;3.70;;
11386;SDS011;5748;53.102;8.456;2024-02-15T04:59:43;3.57;;;3.20;;
11386;SDS011;5748;53.102;8.456;2024-02-15T05:02:14;3.93;;;3.53;;
11386;SDS011;5748;53.102;8.456;2024-02-15T05:04:42;4.23;;;3.60;;
11386;SDS011;5748;53.102;8.456;2024-02-15T05:07:09;3.70;;;3.27;;
11386;SDS011;5748;53.102;8.456;2024-02-15T05:09:40;4.43;;;3.70;;
11386;SDS011;5748;53.102;8.456;2024-02-15T05:12:07;3.47;;;3.17;;
11386;SDS011;5748;53.102;8.456;2024-02-15T05:14:34;3.83;;;3.53;;
11386;SDS011;5748;53.102;8.456;2024-02-15T05:17:02;4.53;;;3.60;;
11386;SDS011;5748;53.102;8.456;2024-02-15T05:19:30;3.47;;;3.17;;
11386;SDS011;5748;53.102;8.456;2024-02-15T05:21:57;3.90;;;3.60;;
11386;SDS011;5748;53.102;8.456;2024-02-15T05:24:26;4.20;;;3.60;;
11386;SDS011;5748;53.102;8.456;2024-02-15T05:26:53;3.87;;;3.57;;
11386;SDS011;5748;53.102;8.456;2024-02-15T05:29:20;3.77;;;3.47;;
11386;SDS011;5748;53.102;8.456;2024-02-15T05:31:48;3.97;;;3.67;;
11386;SDS011;5748;53.102;8.456;2024-02-15T05:34:16;4.47;;;4.07;;
11386;SDS011;5748;53.102;8.456;2024-02-15T05:36:45;4.27;;;3.87;;
11386;SDS011;5748;53.102;8.456;2024-02-15T05:39:13;4.23;;;3.83;;
11386;SDS011;5748;53.102;8.456;2024-02-15T05:41:40;4.10;;;3.73;;
11386;SDS011;5748;53.102;8.456;2024-02-15T05:44:07;4.30;;;3.90;;
11386;SDS011;5748;53.102;8.456;2024-02-15T05:46:34;3.73;;;3.43;;
11386;SDS011;5748;53.102;8.456;2024-02-15T05:49:02;4.10;;;3.70;;
11386;SDS011;5748;53.102;8.456;2024-02-15T05:51:30;3.90;;;3.60;;
11386;SDS011;5748;53.102;8.456;2024-02-15T05:54:00;4.10;;;3.70;;
11386;SDS011;5748;53.102;8.456;2024-02-15T05:56:27;3.53;;;3.23;;
11386;SDS011;5748;53.102;8.456;2024-02-15T05:58:54;4.20;;;3.80;;
11386;SDS011;5748;53.102;8.456;2024-02-15T06:01:22;4.10;;;3.70;;
11386;SDS011;5748;53.102;8.456;2024-02-15T06:03:49;3.60;;;3.30;;
11386;SDS011;5748;53.102;8.456;2024-02-15T06:06:20;3.47;;;3.17;;
11386;SDS011;5748;53.102;8.456;2024-02-15T06:08:47;3.80;;;3.40;;
11386;SDS011;5748;53.102;8.456;2024-02-15T06:11:19;3.90;;;3.60;;
11386;SDS011;5748;53.102;8.456;2024-02-15T06:13:46;3.67;;;3.37;;
11386;SDS011;5748;53.102;8.456;2024-02-15T06:16:14;4.47;;;4.00;;
11386;SDS011;5748;53.102;8.456;2024-02-15T06:18:40;4.03;;;3.63;;
11386;SDS011;5748;53.102;8.456;2024-02-15T06:21:08;4.50;;;4.10;;
11386;SDS011;5748;53.102;8.456;2024-02-15T06:23:35;4.30;;;4.00;;
11386;SDS011;5748;53.102;8.456;2024-02-15T06:26:02;5.50;;;5.00;;
11386;SDS011;5748;53.102;8.456;2024-02-15T06:28:31;5.00;;;4.50;;
11386;SDS011;5748;53.102;8.456;2024-02-15T06:31:15;4.87;;;4.47;;
11386;SDS011;5748;53.102;8.456;2024-02-15T06:33:59;4.87;;;4.47;;
11386;SDS011;5748;53.102;8.456;2024-02-15T06:36:45;4.60;;;4.20;;
11386;SDS011;5748;53.102;8.456;2024-02-15T06:39:31;5.17;;;4.67;;
11386;SDS011;5748;53.102;8.456;2024-02-15T06:42:07;4.80;;;4.30;;
11386;SDS011;5748;53.102;8.456;2024-02-15T06:44:35;4.40;;;4.00;;
11386;SDS011;5748;53.102;8.456;2024-02-15T06:47:03;4.17;;;3.77;;
11386;SDS011;5748;53.102;8.456;2024-02-15T06:49:31;4.20;;;3.80;;
11386;SDS011;5748;53.102;8.456;2024-02-15T06:52:00;3.90;;;3.60;;
11386;SDS011;5748;53.102;8.456;2024-02-15T06:54:28;4.10;;;3.80;;
11386;SDS011;5748;53.102;8.456;2024-02-15T06:56:55;4.27;;;3.87;;
11386;SDS011;5748;53.102;8.456;2024-02-15T06:59:22;4.33;;;3.93;;
11386;SDS011;5748;53.102;8.456;2024-02-15T07:01:50;3.97;;;3.63;;
11386;SDS011;5748;53.102;8.456;2024-02-15T07:04:18;3.93;;;3.60;;
11386;SDS011;5748;53.102;8.456;2024-02-15T07:06:45;4.33;;;3.93;;
11386;SDS011;5748;53.102;8.456;2024-02-15T07:09:14;4.17;;;3.77;;
11386;SDS011;5748;53.102;8.456;2024-02-15T07:11:43;4.43;;;4.03;;
11386;SDS011;5748;53.102;8.456;2024-02-15T07:14:11;4.83;;;4.43;;
11386;SDS011;5748;53.102;8.456;2024-02-15T07:16:38;4.70;;;4.30;;
11386;SDS011;5748;53.102;8.456;2024-02-15T07:19:07;4.50;;;4.10;;
11386;SDS011;5748;53.102;8.456;2024-02-15T07:21:34;4.50;;;4.10;;
11386;SDS011;5748;53.102;8.456;2024-02-15T07:24:03;4.57;;;4.17;;
11386;SDS011;5748;53.102;8.456;2024-02-15T07:26:31;4.57;;;4.17;;
11386;SDS011;5748;53.102;8.456;2024-02-15T07:29:00;5.07;;;4.57;;
11386;SDS011;5748;53.102;8.456;2024-02-15T07:31:31;4.80;;;4.30;;
11386;SDS011;5748;53.102;8.456;2024-02-15T07:33:59;4.30;;;3.90;;
11386;SDS011;5748;53.102;8.456;2024-02-15T07:36:27;5.50;;;4.30;;
11386;SDS011;5748;53.102;8.456;2024-02-15T07:38:55;4.77;;;4.37;;
11386;SDS011;5748;53.102;8.456;2024-02-15T07:41:25;4.50;;;4.10;;
11386;SDS011;5748;53.102;8.456;2024-02-15T07:43:53;4.13;;;3.73;;
11386;SDS011;5748;53.102;8.456;2024-02-15T07:46:20;4.97;;;4.03;;
11386;SDS011;5748;53.102;8.456;2024-02-15T07:48:49;3.83;;;3.53;;
11386;SDS011;5748;53.102;8.456;2024-02-15T07:51:16;4.77;;;4.37;;
11386;SDS011;5748;53.102;8.456;2024-02-15T07:53:46;4.50;;;4.10;;
11386;SDS011;5748;53.102;8.456;2024-02-15T07:56:14;4.17;;;3.80;;
11386;SDS011;5748;53.102;8.456;2024-02-15T07:58:45;7.00;;;5.17;;
11386;SDS011;5748;53.102;8.456;2024-02-15T08:01:17;4.70;;;4.30;;
11386;SDS011;5748;53.102;8.456;2024-02-15T08:03:45;4.70;;;4.30;;
11386;SDS011;5748;53.102;8.456;2024-02-15T08:06:13;4.50;;;4.07;;
11386;SDS011;5748;53.102;8.456;2024-02-15T08:08:42;4.10;;;3.70;;
11386;SDS011;5748;53.102;8.456;2024-02-15T08:11:12;4.00;;;3.70;;
11386;SDS011;5748;53.102;8.456;2024-02-15T08:13:46;4.40;;;4.00;;
11386;SDS011;5748;53.102;8.456;2024-02-15T08:16:15;4.37;;;4.07;;
11386;SDS011;5748;53.102;8.456;2024-02-15T08:18:42;4.60;;;4.20;;
11386;SDS011;5748;53.102;8.456;2024-02-15T08:21:11;4.67;;;4.27;;
11386;SDS011;5748;53.102;8.456;2024-02-15T08:23:38;4.63;;;4.03;;
11386;SDS011;5748;53.102;8.456;2024-02-15T08:26:05;5.17;;;4.67;;
11386;SDS011;5748;53.102;8.456;2024-02-15T08:28:33;4.50;;;4.10;;
11386;SDS011;5748;53.102;8.456;2024-02-15T08:31:00;4.67;;;4.27;;
11386;SDS011;5748;53.102;8.456;2024-02-15T08:33:29;4.47;;;4.07;;
11386;SDS011;5748;53.102;8.456;2024-02-15T08:35:56;4.13;;;3.73;;
11386;SDS011;5748;53.102;8.456;2024-02-15T08:38:23;3.70;;;3.40;;
11386;SDS011;5748;53.102;8.456;2024-02-15T08:40:50;4.00;;;3.70;;
11386;SDS011;5748;53.102;8.456;2024-02-15T08:43:17;4.27;;;3.87;;
11386;SDS011;5748;53.102;8.456;2024-02-15T08:45:45;4.57;;;3.80;;
11386;SDS011;5748;53.102;8.456;2024-02-15T08:48:13;4.50;;;4.10;;
11386;SDS011;5748;53.102;8.456;2024-02-15T08:50:40;4.20;;;3.90;;
11386;SDS011;5748;53.102;8.456;2024-02-15T08:53:10;4.33;;;3.93;;
11386;SDS011;5748;53.102;8.456;2024-02-15T08:55:37;4.00;;;3.60;;
11386;SDS011;5748;53.102;8.456;2024-02-15T08:58:04;4.47;;;4.07;;
11386;SDS011;5748;53.102;8.456;2024-02-15T09:00:31;4.37;;;3.97;;
11386;SDS011;5748;53.102;8.456;2024-02-15T09:03:00;4.43;;;4.03;;
11386;SDS011;5748;53.102;8.456;2024-02-15T09:05:27;4.80;;;4.40;;
11386;SDS011;5748;53.102;8.456;2024-02-15T09:07:54;5.07;;;4.67;;
11386;SDS011;5748;53.102;8.456;2024-02-15T09:10:21;4.90;;;4.50;;
11386;SDS011;5748;53.102;8.456;2024-02-15T09:12:48;5.43;;;4.10;;
11386;SDS011;5748;53.102;8.456;2024-02-15T09:15:16;5.40;;;4.90;;
11386;SDS011;5748;53.102;8.456;2024-02-15T09:17:44;5.63;;;5.03;;
11386;SDS011;5748;53.102;8.456;2024-02-15T09:20:13;5.17;;;4.67;;
11386;SDS011;5748;53.102;8.456;2024-02-15T09:22:43;5.80;;;4.73;;
11386;SDS011;5748;53.102;8.456;2024-02-15T09:25:14;5.57;;;4.80;;
11386;SDS011;5748;53.102;8.456;2024-02-15T09:27:41;5.43;;;4.93;;
11386;SDS011;5748;53.102;8.456;2024-02-15T09:30:11;4.90;;;4.50;;
11386;SDS011;5748;53.102;8.456;2024-02-15T09:32:40;4.73;;;4.33;;
11386;SDS011;5748;53.102;8.456;2024-02-15T09:35:07;6.00;;;5.50;;
11386;SDS011;5748;53.102;8.456;2024-02-15T09:37:38;5.47;;;5.00;;
11386;SDS011;5748;53.102;8.456;2024-02-15T09:40:09;6.20;;;5.63;;
11386;SDS011;5748;53.102;8.456;2024-02-15T09:42:37;6.60;;;5.87;;
11386;SDS011;5748;53.102;8.456;2024-02-15T09:45:05;5.57;;;5.07;;
11386;SDS011;5748;53.102;8.456;2024-02-15T09:47:36;5.77;;;5.27;;
11386;SDS011;5748;53.102;8.456;2024-02-15T09:50:05;6.37;;;5.77;;
11386;SDS011;5748;53.102;8.456;2024-02-15T09:52:33;6.37;;;5.83;;
11386;SDS011;5748;53.102;8.456;2024-02-15T09:55:03;5.90;;;5.30;;
11386;SDS011;5748;53.102;8.456;2024-02-15T09:57:35;6.30;;;5.70;;
11386;SDS011;5748;53.102;8.456;2024-02-15T10:00:02;5.87;;;5.37;;
11386;SDS011;5748;53.102;8.456;2024-02-15T10:02:32;5.53;;;5.03;;
11386;SDS011;5748;53.102;8.456;2024-02-15T10:05:01;5.50;;;5.00;;
11386;SDS011;5748;53.102;8.456;2024-02-15T10:07:29;5.93;;;5.43;;
11386;SDS011;5748;53.102;8.456;2024-02-15T10:09:56;6.23;;;5.63;;
11386;SDS011;5748;53.102;8.456;2024-02-15T10:12:44;5.60;;;5.10;;
11386;SDS011;5748;53.102;8.456;2024-02-15T10:15:14;5.67;;;5.17;;
11386;SDS011;5748;53.102;8.456;2024-02-15T10:17:55;6.33;;;5.73;;
11386;SDS011;5748;53.102;8.456;2024-02-15T10:20:23;5.90;;;5.30;;
11386;SDS011;5748;53.102;8.456;2024-02-15T10:22:52;6.10;;;5.50;;
11386;SDS011;5748;53.102;8.456;2024-02-15T10:25:22;5.83;;;5.33;;
11386;SDS011;5748;53.102;8.456;2024-02-15T10:27:52;5.80;;;5.30;;
11386;SDS011;5748;53.102;8.456;2024-02-15T10:30:28;5.37;;;4.87;;
11386;SDS011;5748;53.102;8.456;2024-02-15T10:32:57;4.87;;;4.47;;
11386;SDS011;5748;53.102;8.456;2024-02-15T10:35:24;5.33;;;4.83;;
11386;SDS011;5748;53.102;8.456;2024-02-15T10:37:51;4.57;;;4.17;;
11386;SDS011;5748;53.102;8.456;2024-02-15T10:40:19;4.80;;;4.40;;
11386;SDS011;5748;53.102;8.456;2024-02-15T10:42:48;4.90;;;4.50;;
11386;SDS011;5748;53.102;8.456;2024-02-15T10:45:18;4.77;;;4.37;;
11386;SDS011;5748;53.102;8.456;2024-02-15T10:47:45;4.73;;;4.33;;
11386;SDS011;5748;53.102;8.456;2024-02-15T10:50:13;4.83;;;4.43;;
11386;SDS011;5748;53.102;8.456;2024-02-15T10:52:43;5.47;;;4.97;;
11386;SDS011;5748;53.102;8.456;2024-02-15T10:55:24;5.00;;;4.60;;
11386;SDS011;5748;53.102;8.456;2024-02-15T10:58:03;5.20;;;4.80;;
11386;SDS011;5748;53.102;8.456;2024-02-15T11:00:33;4.70;;;4.30;;
11386;SDS011;5748;53.102;8.456;2024-02-15T11:03:03;4.87;;;4.47;;
11386;SDS011;5748;53.102;8.456;2024-02-15T11:05:34;4.70;;;4.30;;
11386;SDS011;5748;53.102;8.456;2024-02-15T11:08:03;4.90;;;4.40;;
11386;SDS011;5748;53.102;8.456;2024-02-15T11:10:34;4.97;;;4.43;;
11386;SDS011;5748;53.102;8.456;2024-02-15T11:13:03;5.30;;;4.90;;
11386;SDS011;5748;53.102;8.456;2024-02-15T11:15:40;5.10;;;4.60;;
11386;SDS011;5748;53.102;8.456;2024-02-15T11:18:10;5.27;;;4.77;;
11386;SDS011;5748;53.102;8.456;2024-02-15T11:20:47;5.77;;;5.20;;
11386;SDS011;5748;53.102;8.456;2024-02-15T11:23:25;5.30;;;4.80;;
11386;SDS011;5748;53.102;8.456;2024-02-15T11:25:54;4.40;;;4.00;;
11386;SDS011;5748;53.102;8.456;2024-02-15T11:28:35;4.83;;;4.40;;
11386;SDS011;5748;53.102;8.456;2024-02-15T11:31:14;4.17;;;3.87;;
11386;SDS011;5748;53.102;8.456;2024-02-15T11:40:18;4.30;;;4.00;;
11386;SDS011;5748;53.102;8.456;2024-02-15T11:42:48;4.10;;;3.70;;
11386;SDS011;5748;53.102;8.456;2024-02-15T11:45:15;4.50;;;4.20;;
11386;SDS011;5748;53.102;8.456;2024-02-15T11:47:46;4.00;;;3.70;;
11386;SDS011;5748;53.102;8.456;2024-02-15T11:50:16;5.23;;;4.73;;
11386;SDS011;5748;53.102;8.456;2024-02-15T11:52:45;4.10;;;3.80;;
11386;SDS011;5748;53.102;8.456;2024-02-15T11:55:14;4.60;;;4.20;;
11386;SDS011;5748;53.102;8.456;2024-02-15T11:57:53;4.53;;;4.20;;
11386;SDS011;5748;53.102;8.456;2024-02-15T12:00:28;4.10;;;3.80;;
11386;SDS011;5748;53.102;8.456;2024-02-15T12:03:15;4.00;;;3.70;;
11386;SDS011;5748;53.102;8.456;2024-02-15T12:06:03;3.67;;;3.40;;
11386;SDS011;5748;53.102;8.456;2024-02-15T12:08:48;3.77;;;3.47;;
11386;SDS011;5748;53.102;8.456;2024-02-15T12:11:35;4.27;;;3.90;;
11386;SDS011;5748;53.102;8.456;2024-02-15T12:14:20;3.73;;;3.43;;
11386;SDS011;5748;53.102;8.456;2024-02-15T12:17:05;4.30;;;3.90;;
11386;SDS011;5748;53.102;8.456;2024-02-15T12:19:53;4.07;;;3.77;;
11386;SDS011;5748;53.102;8.456;2024-02-15T12:22:22;3.90;;;3.60;;
11386;SDS011;5748;53.102;8.456;2024-02-15T12:24:55;4.00;;;3.70;;
11386;SDS011;5748;53.102;8.456;2024-02-15T12:27:23;3.87;;;3.40;;
11386;SDS011;5748;53.102;8.456;2024-02-15T12:29:52;3.80;;;3.50;;
11386;SDS011;5748;53.102;8.456;2024-02-15T12:32:21;3.73;;;3.43;;
11386;SDS011;5748;53.102;8.456;2024-02-15T12:34:49;3.50;;;3.30;;
11386;SDS011;5748;53.102;8.456;2024-02-15T12:37:18;3.80;;;3.40;;
11386;SDS011;5748;53.102;8.456;2024-02-15T12:39:47;3.33;;;3.03;;
11386;SDS011;5748;53.102;8.456;2024-02-15T12:42:15;3.23;;;3.03;;
11386;SDS011;5748;53.102;8.456;2024-02-15T12:44:43;3.17;;;2.97;;
11386;SDS011;5748;53.102;8.456;2024-02-15T12:47:18;3.70;;;3.40;;
11386;SDS011;5748;53.102;8.456;2024-02-15T12:49:47;3.50;;;3.20;;
11386;SDS011;5748;53.102;8.456;2024-02-15T12:52:35;3.13;;;2.93;;
11386;SDS011;5748;53.102;8.456;2024-02-15T12:55:10;3.60;;;3.30;;
11386;SDS011;5748;53.102;8.456;2024-02-15T12:57:39;3.10;;;2.90;;
11386;SDS011;5748;53.102;8.456;2024-02-15T13:00:10;3.53;;;3.23;;
11386;SDS011;5748;53.102;8.456;2024-02-15T13:02:43;3.50;;;3.20;;
11386;SDS011;5748;53.102;8.456;2024-02-15T13:05:11;3.17;;;2.97;;
11386;SDS011;5748;53.102;8.456;2024-02-15T13:07:40;3.00;;;2.80;;
11386;SDS011;5748;53.102;8.456;2024-02-15T13:10:07;3.60;;;3.30;;
11386;SDS011;5748;53.102;8.456;2024-02-15T13:12:36;3.13;;;2.93;;
11386;SDS011;5748;53.102;8.456;2024-02-15T13:15:04;2.93;;;2.73;;
11386;SDS011;5748;53.102;8.456;2024-02-15T13:17:36;3.20;;;3.00;;
11386;SDS011;5748;53.102;8.456;2024-02-15T13:20:05;3.17;;;2.87;;
11386;SDS011;5748;53.102;8.456;2024-02-15T13:22:37;2.70;;;2.50;;
11386;SDS011;5748;53.102;8.456;2024-02-15T13:25:06;2.90;;;2.70;;
11386;SDS011;5748;53.102;8.456;2024-02-15T13:27:34;2.70;;;2.50;;
11386;SDS011;5748;53.102;8.456;2024-02-15T13:30:02;3.10;;;2.70;;
11386;SDS011;5748;53.102;8.456;2024-02-15T13:32:33;5.67;;;5.13;;
11386;SDS011;5748;53.102;8.456;2024-02-15T13:35:02;5.60;;;5.10;;
11386;SDS011;5748;53.102;8.456;2024-02-15T13:37:38;4.50;;;4.10;;
11386;SDS011;5748;53.102;8.456;2024-02-15T13:40:10;4.00;;;3.70;;
11386;SDS011;5748;53.102;8.456;2024-02-15T13:42:40;3.50;;;3.20;;
11386;SDS011;5748;53.102;8.456;2024-02-15T13:45:14;3.53;;;3.33;;
11386;SDS011;5748;53.102;8.456;2024-02-15T13:47:43;3.20;;;3.00;;
11386;SDS011;5748;53.102;8.456;2024-02-15T13:50:12;2.97;;;2.77;;
11386;SDS011;5748;53.102;8.456;2024-02-15T13:52:40;2.90;;;2.70;;
11386;SDS011;5748;53.102;8.456;2024-02-15T13:55:10;3.30;;;3.10;;
11386;SDS011;5748;53.102;8.456;2024-02-15T13:57:38;3.00;;;2.80;;
11386;SDS011;5748;53.102;8.456;2024-02-15T14:00:07;2.87;;;2.67;;
11386;SDS011;5748;53.102;8.456;2024-02-15T14:02:39;2.77;;;2.57;;
11386;SDS011;5748;53.102;8.456;2024-02-15T14:05:08;2.87;;;2.67;;
11386;SDS011;5748;53.102;8.456;2024-02-15T14:07:36;2.87;;;2.67;;
11386;SDS011;5748;53.102;8.456;2024-02-15T14:10:04;2.63;;;2.43;;
11386;SDS011;5748;53.102;8.456;2024-02-15T14:12:34;2.80;;;2.60;;
11386;SDS011;5748;53.102;8.456;2024-02-15T14:15:01;2.60;;;2.40;;
11386;SDS011;5748;53.102;8.456;2024-02-15T14:17:30;2.60;;;2.40;;
11386;SDS011;5748;53.102;8.456;2024-02-15T14:19:57;2.27;;;2.17;;
11386;SDS011;5748;53.102;8.456;2024-02-15T14:22:26;2.40;;;2.20;;
11386;SDS011;5748;53.102;8.456;2024-02-15T14:24:54;2.50;;;2.30;;
11386;SDS011;5748;53.102;8.456;2024-02-15T14:27:21;2.47;;;2.27;;
11386;SDS011;5748;53.102;8.456;2024-02-15T14:29:50;2.47;;;2.33;;
11386;SDS011;5748;53.102;8.456;2024-02-15T14:32:34;2.40;;;2.20;;
11386;SDS011;5748;53.102;8.456;2024-02-15T14:35:19;2.30;;;2.20;;
11386;SDS011;5748;53.102;8.456;2024-02-15T14:37:46;2.40;;;2.20;;
11386;SDS011;5748;53.102;8.456;2024-02-15T14:40:14;2.60;;;2.40;;
11386;SDS011;5748;53.102;8.456;2024-02-15T14:42:42;2.27;;;2.17;;
11386;SDS011;5748;53.102;8.456;2024-02-15T14:45:11;2.10;;;1.97;;
11386;SDS011;5748;53.102;8.456;2024-02-15T14:47:38;2.13;;;2.03;;
11386;SDS011;5748;53.102;8.456;2024-02-15T14:50:07;2.60;;;2.40;;
11386;SDS011;5748;53.102;8.456;2024-02-15T14:52:38;2.03;;;1.93;;
11386;SDS011;5748;53.102;8.456;2024-02-15T14:55:05;2.30;;;2.20;;
11386;SDS011;5748;53.102;8.456;2024-02-15T14:57:33;2.10;;;2.00;;
11386;SDS011;5748;53.102;8.456;2024-02-15T15:00:03;2.30;;;2.10;;
11386;SDS011;5748;53.102;8.456;2024-02-15T15:02:37;1.97;;;1.87;;
11386;SDS011;5748;53.102;8.456;2024-02-15T15:05:06;2.10;;;1.90;;
11386;SDS011;5748;53.102;8.456;2024-02-15T15:07:52;2.00;;;1.90;;
11386;SDS011;5748;53.102;8.456;2024-02-15T15:10:36;1.97;;;1.87;;
11386;SDS011;5748;53.102;8.456;2024-02-15T15:13:21;2.10;;;1.90;;
11386;SDS011;5748;53.102;8.456;2024-02-15T15:15:48;2.37;;;2.17;;
11386;SDS011;5748;53.102;8.456;2024-02-15T15:18:17;2.30;;;2.10;;
11386;SDS011;5748;53.102;8.456;2024-02-15T15:20:44;2.60;;;2.40;;